Time;durP1;ratioP1;P1;durP2;ratioP2;P2;SDS_P1;SDS_P2;PMS_P1;PMS_P2;Temp;Humidity;BMP_temperature;BMP_pressure;BME280_temperature;BME280_humidity;BME280_pressure;Samples;Min_cycle;Max_cycle;Signal;HPM_P1;HPM_P2
2021/01/24 00:02:12;;;;;;;38.55;21.87;;;;;;;8.92;59.67;97757.47;4458906;32;20144;-95
2021/01/24 00:04:37;;;;;;;35.50;20.15;;;;;;;9.10;59.68;97757.34;4458735;32;20144;-95
2021/01/24 00:07:03;;;;;;;29.92;18.65;;;;;;;9.12;59.69;97750.31;4458497;32;20436;-95
2021/01/24 00:09:29;;;;;;;35.35;21.62;;;;;;;9.13;59.68;97739.00;4471531;32;20088;-95
2021/01/24 00:11:54;;;;;;;30.02;19.20;;;;;;;9.14;59.69;97741.50;4445978;32;20126;-94
2021/01/24 00:14:20;;;;;;;36.63;21.58;;;;;;;9.12;59.67;97735.56;4458671;32;20097;-94
2021/01/24 00:16:45;;;;;;;32.55;20.50;;;;;;;8.91;59.68;97731.59;4458337;32;20540;-96
2021/01/24 00:19:10;;;;;;;31.25;17.92;;;;;;;8.81;59.66;97728.72;4458246;32;20096;-94
2021/01/24 00:21:36;;;;;;;34.03;18.48;;;;;;;8.80;59.66;97729.63;4458021;32;20128;-95
2021/01/24 00:24:01;;;;;;;29.67;18.33;;;;;;;8.82;59.67;97722.59;4458091;32;20422;-95
2021/01/24 00:26:27;;;;;;;26.52;17.83;;;;;;;8.72;59.66;97718.00;4457753;32;20100;-94
2021/01/24 00:28:52;;;;;;;32.83;18.40;;;;;;;8.55;59.65;97729.34;4445409;32;20118;-95
2021/01/24 00:31:18;;;;;;;27.65;16.05;;;;;;;8.53;59.66;97731.19;4457935;32;20123;-94
2021/01/24 00:33:43;;;;;;;25.60;15.75;;;;;;;8.54;59.65;97731.13;4458068;32;20105;-94
2021/01/24 00:36:09;;;;;;;28.65;18.02;;;;;;;8.54;59.65;97735.47;4457213;32;22099;-92
2021/01/24 00:38:34;;;;;;;25.05;15.43;;;;;;;8.44;59.64;97742.06;4458306;32;20149;-93
2021/01/24 00:41:04;;;;;;;28.85;17.58;;;;;;;8.45;59.65;97741.97;4457144;32;22302;-93
2021/01/24 00:43:30;;;;;;;28.77;17.00;;;;;;;8.31;59.64;97750.50;4458452;32;20164;-93
2021/01/24 00:45:55;;;;;;;30.10;16.73;;;;;;;8.30;59.64;97751.44;4457284;32;20159;-91
2021/01/24 00:48:20;;;;;;;29.48;17.25;;;;;;;8.26;59.63;97752.47;4455605;32;26376;-92
2021/01/24 00:50:46;;;;;;;34.22;20.35;;;;;;;8.29;59.63;97748.91;4455499;32;25304;-92
2021/01/24 00:53:11;;;;;;;33.90;18.52;;;;;;;8.13;59.63;97748.91;4456410;32;20124;-92
2021/01/24 00:55:36;;;;;;;32.72;18.65;;;;;;;8.27;59.63;97748.97;4456076;32;20457;-92
2021/01/24 00:58:02;;;;;;;38.70;22.20;;;;;;;8.23;59.63;97742.28;4455998;32;20464;-90
2021/01/24 01:00:27;;;;;;;30.50;18.67;;;;;;;8.19;59.63;97743.38;4456168;32;20093;-92
2021/01/24 01:02:53;;;;;;;32.95;19.12;;;;;;;8.26;59.63;97749.06;4456586;32;20391;-93
2021/01/24 01:05:18;;;;;;;35.20;19.60;;;;;;;8.27;59.64;97751.56;4457817;32;20616;-92
2021/01/24 01:07:44;;;;;;;36.55;21.00;;;;;;;8.39;59.65;97746.69;4456774;32;20432;-93
2021/01/24 01:10:11;;;;;;;41.30;23.25;;;;;;;8.20;59.63;97752.00;4457387;32;20125;-94
2021/01/24 01:12:36;;;;;;;36.72;20.95;;;;;;;8.07;59.63;97746.66;4444727;32;20112;-94
2021/01/24 01:15:03;;;;;;;34.65;20.25;;;;;;;8.05;59.62;97745.06;4456403;32;33553;-94
2021/01/24 01:17:28;;;;;;;36.65;21.48;;;;;;;8.24;59.64;97732.75;4457849;32;20096;-93
2021/01/24 01:19:54;;;;;;;43.15;23.02;;;;;;;8.20;59.63;97732.09;4444119;32;30540;-93
2021/01/24 01:22:19;;;;;;;41.55;22.17;;;;;;;8.34;59.64;97739.16;4456448;32;20138;-93
2021/01/24 01:24:45;;;;;;;47.78;25.95;;;;;;;8.47;59.65;97737.53;4457253;32;20209;-92
2021/01/24 01:27:14;;;;;;;39.70;21.70;;;;;;;8.48;59.64;97733.19;4457214;32;20108;-96
2021/01/24 01:29:40;;;;;;;40.97;21.67;;;;;;;8.42;59.64;97733.53;4455769;32;20115;-92
2021/01/24 01:32:05;;;;;;;35.17;21.55;;;;;;;8.51;59.64;97727.84;4456008;32;20238;-92
2021/01/24 01:34:30;;;;;;;35.58;21.98;;;;;;;8.38;59.64;97725.09;4455791;32;20222;-91
2021/01/24 01:36:56;;;;;;;39.38;22.98;;;;;;;8.58;59.65;97717.06;4455392;32;20105;-92
2021/01/24 01:39:21;;;;;;;37.45;22.55;;;;;;;8.50;59.64;97720.97;4455377;32;20394;-91
2021/01/24 01:41:46;;;;;;;41.28;22.67;;;;;;;8.53;59.66;97713.87;4454536;32;28643;-91
2021/01/24 01:44:12;;;;;;;41.47;22.65;;;;;;;8.44;59.64;97710.97;4455076;32;20456;-91
2021/01/24 01:46:37;;;;;;;38.97;22.00;;;;;;;8.41;59.64;97714.56;4441765;32;20484;-90
2021/01/24 01:49:03;;;;;;;31.25;20.33;;;;;;;8.63;59.66;97706.41;4454291;32;22778;-90
2021/01/24 01:51:28;;;;;;;35.40;20.48;;;;;;;8.63;59.66;97709.00;4454875;32;20152;-90
2021/01/24 01:53:54;;;;;;;33.80;20.30;;;;;;;8.62;59.66;97709.94;4467148;32;35418;-89
2021/01/24 01:56:19;;;;;;;33.60;19.92;;;;;;;8.64;59.66;97705.50;4454817;32;20111;-91
2021/01/24 01:58:45;;;;;;;28.65;17.20;;;;;;;8.87;59.66;97704.19;4454680;32;20635;-90
2021/01/24 02:01:18;;;;;;;34.22;20.08;;;;;;;8.78;59.67;97709.91;4466632;32;20541;-90
2021/01/24 02:03:46;;;;;;;31.48;19.35;;;;;;;8.68;59.66;97706.97;4456764;32;20840;-90
2021/01/24 02:06:16;;;;;;;36.35;19.05;;;;;;;8.73;59.66;97707.53;4469383;32;20123;-90
2021/01/24 02:09:13;;;;;;;29.50;18.05;;;;;;;9.04;59.68;97705.81;4456299;32;20100;-90
2021/01/24 02:11:50;;;;;;;31.67;18.08;;;;;;;9.10;59.68;97703.69;4458695;32;20109;-90
2021/01/24 02:14:20;;;;;;;28.27;16.90;;;;;;;9.01;59.68;97711.16;4457171;32;20112;-91
2021/01/24 02:16:47;;;;;;;25.83;16.77;;;;;;;8.97;59.68;97718.28;4456546;32;20115;-90
2021/01/24 02:19:20;;;;;;;28.90;17.05;;;;;;;8.95;59.67;97719.28;4456592;32;20113;-89
2021/01/24 02:21:46;;;;;;;33.35;18.05;;;;;;;9.01;59.68;97717.19;4443930;32;20183;-90
2021/01/24 02:24:12;;;;;;;27.33;15.88;;;;;;;8.94;59.67;97726.25;4443933;32;20124;-92
2021/01/24 02:27:03;;;;;;;24.63;15.60;;;;;;;8.86;59.66;97726.69;4457394;32;20491;-92
2021/01/24 02:29:52;;;;;;;24.05;15.40;;;;;;;8.99;59.67;97723.38;4457334;32;20689;-89
2021/01/24 02:32:18;;;;;;;26.52;16.25;;;;;;;8.78;59.66;97726.31;4470075;32;20473;-91
2021/01/24 02:34:45;;;;;;;32.22;17.75;;;;;;;8.89;59.68;97723.91;4457015;32;20108;-90
2021/01/24 02:37:10;;;;;;;27.37;16.17;;;;;;;8.79;59.67;97721.94;4457045;32;20114;-90
2021/01/24 02:39:37;;;;;;;29.77;17.25;;;;;;;9.08;59.68;97720.25;4456260;32;20113;-89
2021/01/24 02:42:02;;;;;;;32.17;16.50;;;;;;;8.99;59.68;97721.66;4455681;32;22602;-90
2021/01/24 02:44:28;;;;;;;29.52;17.27;;;;;;;9.11;59.67;97723.50;4455555;32;20354;-88
2021/01/24 02:46:56;;;;;;;29.85;16.85;;;;;;;8.87;59.66;97715.37;4456318;32;20476;-90
2021/01/24 02:49:22;;;;;;;29.50;17.10;;;;;;;9.02;59.67;97715.44;4455645;32;26370;-91
2021/01/24 02:51:48;;;;;;;33.25;18.00;;;;;;;8.88;59.67;97727.44;4456138;32;20104;-91
2021/01/24 02:54:13;;;;;;;32.22;18.58;;;;;;;8.92;59.67;97731.53;4442872;32;30057;-90
2021/01/24 02:56:38;;;;;;;34.25;18.17;;;;;;;9.00;59.67;97731.09;4455525;32;23202;-90
2021/01/24 02:59:04;;;;;;;32.85;18.80;;;;;;;8.89;59.68;97734.28;4455780;32;22760;-90
2021/01/24 03:01:30;;;;;;;39.13;20.40;;;;;;;8.97;59.67;97727.81;4456438;32;20112;-91
2021/01/24 03:03:55;;;;;;;41.83;20.02;;;;;;;8.87;59.66;97727.53;4456547;32;20500;-91
2021/01/24 03:06:21;;;;;;;38.97;20.65;;;;;;;8.90;59.68;97723.00;4442994;32;22929;-90
2021/01/24 03:08:46;;;;;;;42.75;20.80;;;;;;;8.93;59.67;97724.56;4456365;32;20140;-92
2021/01/24 03:11:12;;;;;;;44.38;21.80;;;;;;;8.76;59.67;97730.75;4456374;32;20133;-91
2021/01/24 03:13:46;;;;;;;38.95;20.83;;;;;;;8.79;59.66;97729.72;4456644;32;20112;-91
2021/01/24 03:16:12;;;;;;;44.42;21.77;;;;;;;8.98;59.68;97732.09;4456007;32;20122;-91
2021/01/24 03:18:39;;;;;;;41.55;21.12;;;;;;;8.84;59.67;97736.31;4456518;32;20140;-91
2021/01/24 03:21:05;;;;;;;44.67;21.33;;;;;;;8.86;59.66;97726.69;4457519;32;20715;-91
2021/01/24 03:23:30;;;;;;;45.30;22.33;;;;;;;8.95;59.67;97714.09;4457626;32;20202;-92
2021/01/24 03:25:56;;;;;;;42.42;20.98;;;;;;;8.84;59.67;97712.97;4457071;32;20178;-92
2021/01/24 03:28:21;;;;;;;44.17;21.58;;;;;;;8.88;59.67;97711.88;4456303;32;20162;-91
2021/01/24 03:30:48;;;;;;;52.20;21.50;;;;;;;8.88;59.66;97709.28;4456457;32;20491;-90
2021/01/24 03:33:14;;;;;;;42.47;22.52;;;;;;;8.93;59.67;97696.03;4456340;32;20125;-90
2021/01/24 03:35:39;;;;;;;39.03;20.92;;;;;;;9.07;59.68;97703.03;4455853;32;20116;-90
2021/01/24 03:38:04;;;;;;;41.30;22.27;;;;;;;9.03;59.68;97706.72;4455735;32;20143;-90
2021/01/24 03:40:30;;;;;;;43.13;21.37;;;;;;;8.90;59.68;97706.59;4455092;32;20093;-89
2021/01/24 03:42:55;;;;;;;48.28;24.08;;;;;;;8.90;59.68;97719.56;4469356;32;20190;-92
2021/01/24 03:45:21;;;;;;;48.53;24.25;;;;;;;8.91;59.67;97713.44;4456697;32;20156;-92
2021/01/24 03:47:46;;;;;;;49.03;24.55;;;;;;;8.90;59.68;97706.59;4457169;32;20101;-92
2021/01/24 03:50:12;;;;;;;55.25;25.37;;;;;;;8.97;59.67;97699.28;4456154;32;28928;-92
2021/01/24 03:52:37;;;;;;;49.83;23.35;;;;;;;8.96;59.67;97713.19;4456831;32;20139;-91
2021/01/24 03:55:03;;;;;;;45.80;23.23;;;;;;;8.98;59.68;97701.78;4456550;32;20124;-91
2021/01/24 03:57:29;;;;;;;43.78;23.98;;;;;;;8.94;59.67;97702.88;4455653;32;20107;-90
2021/01/24 03:59:54;;;;;;;49.72;24.52;;;;;;;8.97;59.68;97697.50;4455243;32;20397;-89
2021/01/24 04:02:23;;;;;;;47.13;23.73;;;;;;;8.96;59.67;97700.19;4455260;32;20134;-88
2021/01/24 04:04:48;;;;;;;47.58;22.75;;;;;;;9.02;59.68;97711.09;4455216;32;20084;-91
2021/01/24 04:07:14;;;;;;;49.90;22.40;;;;;;;9.02;59.67;97708.50;4455795;32;20145;-91
2021/01/24 04:09:39;;;;;;;41.92;20.80;;;;;;;9.08;59.68;97712.47;4456015;32;20178;-90
2021/01/24 04:12:05;;;;;;;43.67;20.45;;;;;;;9.13;59.68;97700.91;4456100;32;20116;-91
2021/01/24 04:14:31;;;;;;;45.63;21.23;;;;;;;9.03;59.68;97702.38;4469022;32;20143;-91
2021/01/24 04:16:56;;;;;;;43.40;20.37;;;;;;;9.02;59.67;97713.69;4455132;32;27538;-91
2021/01/24 04:19:22;;;;;;;35.10;18.92;;;;;;;8.97;59.68;97720.88;4442879;32;20122;-90
2021/01/24 04:21:47;;;;;;;36.92;19.80;;;;;;;8.96;59.67;97723.56;4455603;32;20104;-90
2021/01/24 04:24:13;;;;;;;37.38;18.05;;;;;;;8.96;59.67;97726.16;4455712;32;20140;-91
2021/01/24 04:26:38;;;;;;;37.40;19.08;;;;;;;8.96;59.67;97726.97;4454909;32;22357;-90
2021/01/24 04:29:03;;;;;;;34.20;17.35;;;;;;;8.98;59.68;97721.69;4454884;32;23310;-90
2021/01/24 04:31:29;;;;;;;39.25;16.73;;;;;;;8.98;59.68;97717.34;4455689;32;20113;-91
2021/01/24 04:33:54;;;;;;;30.10;16.92;;;;;;;8.96;59.67;97718.38;4455454;32;20093;-91
2021/01/24 04:36:20;;;;;;;34.22;16.85;;;;;;;8.89;59.67;97720.50;4455264;32;20116;-91
2021/01/24 04:38:45;;;;;;;33.10;16.60;;;;;;;9.00;59.68;97710.34;4455660;32;20184;-93
2021/01/24 04:41:10;;;;;;;28.65;15.18;;;;;;;8.98;59.68;97713.91;4456307;32;20146;-90
2021/01/24 04:43:36;;;;;;;27.00;14.00;;;;;;;9.06;59.68;97711.72;4455661;32;20132;-90
2021/01/24 04:46:02;;;;;;;27.70;13.55;;;;;;;9.12;59.69;97706.19;4455803;32;20167;-91
2021/01/24 04:48:27;;;;;;;25.92;13.40;;;;;;;9.12;59.67;97707.00;4470957;32;20137;-93
2021/01/24 04:50:53;;;;;;;23.98;12.35;;;;;;;9.07;59.68;97708.22;4457147;32;20120;-93
2021/01/24 04:53:18;;;;;;;26.05;12.13;;;;;;;9.15;59.68;97706.00;4443953;32;20088;-92
2021/01/24 04:55:44;;;;;;;19.62;11.25;;;;;;;8.91;59.68;97714.28;4455055;32;24192;-91
2021/01/24 04:58:09;;;;;;;19.80;10.48;;;;;;;8.98;59.68;97711.31;4455765;32;20428;-91
2021/01/24 05:00:35;;;;;;;21.70;9.30;;;;;;;8.95;59.67;97714.94;4455640;32;20153;-89
2021/01/24 05:03:01;;;;;;;18.87;9.13;;;;;;;8.93;59.67;97719.38;4467856;32;20408;-90
2021/01/24 05:05:26;;;;;;;19.50;9.45;;;;;;;9.04;59.68;97718.78;4441885;32;20092;-90
2021/01/24 05:07:58;;;;;;;18.92;9.82;;;;;;;9.02;59.67;97728.41;4455109;32;20105;-91
2021/01/24 05:10:28;;;;;;;18.42;9.70;;;;;;;8.99;59.68;97719.06;4455752;32;20704;-91
2021/01/24 05:12:54;;;;;;;18.30;9.52;;;;;;;9.02;59.67;97723.22;4443318;32;20518;-92
2021/01/24 05:15:28;;;;;;;15.65;9.27;;;;;;;9.12;59.67;97732.13;4442259;32;20111;-90
2021/01/24 05:17:55;;;;;;;17.27;8.55;;;;;;;8.95;59.67;97738.28;4442633;32;20143;-94
2021/01/24 05:20:22;;;;;;;17.58;8.32;;;;;;;8.95;59.67;97746.06;4444659;32;20169;-92
2021/01/24 05:22:47;;;;;;;15.80;8.93;;;;;;;9.14;59.69;97744.09;4444427;32;20104;-93
2021/01/24 05:25:16;;;;;;;14.20;7.75;;;;;;;9.07;59.68;97750.56;4457221;32;20671;-94
2021/01/24 05:27:41;;;;;;;14.55;7.60;;;;;;;9.07;59.68;97741.94;4444331;32;20154;-92
2021/01/24 05:30:08;;;;;;;14.27;7.20;;;;;;;9.05;59.68;97741.22;4447652;32;20145;-94
2021/01/24 05:32:43;;;;;;;13.80;6.93;;;;;;;9.06;59.68;97737.69;4456242;32;20080;-93
2021/01/24 05:35:12;;;;;;;15.07;6.55;;;;;;;9.03;59.67;97748.25;4456726;32;20482;-93
2021/01/24 05:37:44;;;;;;;12.82;6.60;;;;;;;9.02;59.68;97743.97;4457958;32;20122;-93
2021/01/24 05:40:10;;;;;;;11.15;6.62;;;;;;;8.95;59.67;97745.25;4446253;32;20819;-93
2021/01/24 05:42:36;;;;;;;10.38;6.55;;;;;;;8.98;59.68;97752.84;4446224;32;20124;-93
2021/01/24 05:45:08;;;;;;;13.35;6.95;;;;;;;8.97;59.67;97751.16;4445726;32;20135;-94
2021/01/24 05:47:35;;;;;;;11.85;5.97;;;;;;;8.99;59.67;97757.97;4446266;32;20101;-94
2021/01/24 05:50:01;;;;;;;11.95;6.43;;;;;;;9.02;59.68;97754.38;4446175;32;20105;-93
2021/01/24 05:52:26;;;;;;;14.68;6.00;;;;;;;8.90;59.68;97761.91;4458698;32;20497;-94
2021/01/24 05:54:52;;;;;;;12.02;6.57;;;;;;;8.73;59.66;97772.41;4446168;32;20105;-93
2021/01/24 05:57:21;;;;;;;14.30;6.90;;;;;;;8.89;59.66;97774.97;4446090;32;20511;-94
2021/01/24 05:59:50;;;;;;;13.95;6.90;;;;;;;8.89;59.66;97777.56;4446186;32;20113;-94
2021/01/24 06:02:16;;;;;;;18.13;8.67;;;;;;;8.90;59.67;97776.63;4458860;32;21057;-93
2021/01/24 06:04:42;;;;;;;13.82;7.68;;;;;;;8.83;59.67;97781.34;4446003;32;20168;-93
2021/01/24 06:07:08;;;;;;;17.48;7.65;;;;;;;8.77;59.66;97783.47;4446121;32;20121;-93
2021/01/24 06:09:33;;;;;;;11.68;7.00;;;;;;;8.83;59.67;97775.31;4446544;32;20373;-93
2021/01/24 06:12:00;;;;;;;13.02;6.37;;;;;;;8.83;59.67;97778.75;4445743;32;21540;-93
2021/01/24 06:14:25;;;;;;;9.82;5.87;;;;;;;8.87;59.66;97780.25;4445864;32;20096;-93
2021/01/24 06:16:51;;;;;;;16.15;6.22;;;;;;;8.89;59.67;97786.19;4445441;32;20172;-93
2021/01/24 06:19:18;;;;;;;9.57;5.93;;;;;;;8.84;59.67;97789.97;4445104;32;20116;-91
2021/01/24 06:21:52;;;;;;;11.98;6.62;;;;;;;8.82;59.67;97784.88;4458004;32;20439;-91
2021/01/24 06:24:29;;;;;;;10.00;6.20;;;;;;;8.96;59.67;97798.81;4445232;32;20712;-91
2021/01/24 06:26:58;;;;;;;9.98;6.07;;;;;;;8.91;59.68;97797.31;4444831;32;20529;-92
2021/01/24 06:29:28;;;;;;;10.68;6.10;;;;;;;8.81;59.66;97796.16;4444874;32;20803;-93
2021/01/24 06:31:54;;;;;;;13.57;6.05;;;;;;;8.85;59.67;97796.81;4457656;32;20126;-90
2021/01/24 06:34:39;;;;;;;12.15;5.97;;;;;;;8.86;59.67;97798.50;4444198;32;20089;-91
2021/01/24 06:37:14;;;;;;;12.15;6.22;;;;;;;8.84;59.67;97803.78;4457481;32;20061;-92
2021/01/24 06:39:49;;;;;;;13.18;6.20;;;;;;;8.87;59.67;97803.59;4444429;32;20127;-91
2021/01/24 06:42:43;;;;;;;10.23;6.05;;;;;;;8.74;59.66;97806.94;4457674;32;20832;-93
2021/01/24 06:45:27;;;;;;;14.63;6.85;;;;;;;9.00;59.67;97808.94;4470327;32;20092;-92
2021/01/24 06:47:53;;;;;;;12.15;6.95;;;;;;;8.82;59.67;97813.41;4470839;32;20466;-93
2021/01/24 06:50:41;;;;;;;11.88;6.90;;;;;;;8.90;59.68;97816.41;4443993;32;20108;-93
2021/01/24 06:53:18;;;;;;;11.02;6.50;;;;;;;8.91;59.68;97827.59;4470062;32;20083;-92
2021/01/24 06:55:58;;;;;;;13.85;7.15;;;;;;;8.67;59.66;97840.19;4469733;32;20062;-91
2021/01/24 06:58:29;;;;;;;11.57;6.65;;;;;;;9.04;59.67;97840.75;4444968;32;20156;-92
2021/01/24 07:01:27;;;;;;;11.90;6.65;;;;;;;9.01;59.68;97856.50;4469523;32;20123;-89
2021/01/24 07:04:18;;;;;;;11.15;7.72;;;;;;;8.94;59.67;97845.59;4468917;32;20080;-89
2021/01/24 07:07:18;;;;;;;12.63;7.22;;;;;;;8.81;59.66;97853.25;4470105;32;20120;-90
2021/01/24 07:09:43;;;;;;;13.70;7.80;;;;;;;8.89;59.67;97842.44;4456321;32;20096;-90
2021/01/24 07:12:10;;;;;;;15.52;7.80;;;;;;;8.87;59.66;97846.88;4455702;32;20128;-89
2021/01/24 07:14:35;;;;;;;12.82;7.90;;;;;;;8.83;59.67;97840.19;4455305;32;20122;-90
2021/01/24 07:17:06;;;;;;;14.40;7.97;;;;;;;8.83;59.67;97841.03;4468332;32;20445;-90
2021/01/24 07:19:32;;;;;;;15.77;7.95;;;;;;;8.85;59.67;97840.94;4455820;32;20101;-91
2021/01/24 07:21:58;;;;;;;17.02;8.77;;;;;;;8.95;59.67;97847.28;4455551;32;20123;-90
2021/01/24 07:24:23;;;;;;;15.30;8.32;;;;;;;9.04;59.68;97848.53;4442358;32;20487;-90
2021/01/24 07:26:49;;;;;;;17.58;9.98;;;;;;;8.75;59.67;97855.31;4441980;32;20100;-90
2021/01/24 07:29:14;;;;;;;14.77;10.00;;;;;;;8.71;59.66;97862.44;4442517;32;20156;-90
2021/01/24 07:31:40;;;;;;;18.40;9.23;;;;;;;8.77;59.66;97869.91;4455602;32;20092;-89
2021/01/24 07:34:06;;;;;;;22.00;10.88;;;;;;;8.74;59.67;97867.44;4455183;32;20646;-89
2021/01/24 07:36:32;;;;;;;19.45;10.88;;;;;;;8.77;59.67;97869.06;4455808;32;20084;-90
2021/01/24 07:38:57;;;;;;;18.27;10.35;;;;;;;8.79;59.67;97872.41;4468268;32;20499;-90
2021/01/24 07:41:22;;;;;;;19.90;10.07;;;;;;;8.79;59.66;97875.84;4454985;32;22881;-89
2021/01/24 07:43:48;;;;;;;19.02;10.63;;;;;;;8.91;59.68;97884.69;4455738;32;20145;-90
2021/01/24 07:46:13;;;;;;;20.92;11.15;;;;;;;8.75;59.66;97884.69;4455302;32;20487;-90
2021/01/24 07:48:40;;;;;;;16.37;10.77;;;;;;;8.69;59.66;97886.78;4455044;32;20140;-89
2021/01/24 07:51:05;;;;;;;18.08;10.95;;;;;;;8.68;59.66;97885.09;4455826;32;20127;-90
2021/01/24 07:53:31;;;;;;;19.15;10.93;;;;;;;8.65;59.66;97887.88;4455284;32;20343;-90
2021/01/24 07:55:56;;;;;;;16.90;10.45;;;;;;;8.68;59.66;97900.66;4455185;32;20154;-89
2021/01/24 07:58:22;;;;;;;18.25;11.00;;;;;;;8.72;59.66;97907.34;4454990;32;20192;-90
2021/01/24 08:00:47;;;;;;;18.52;11.25;;;;;;;8.70;59.66;97916.97;4455095;32;20509;-89
2021/01/24 08:03:21;;;;;;;23.60;12.23;;;;;;;8.65;59.66;97913.81;4454973;32;20143;-90
2021/01/24 08:05:47;;;;;;;17.55;11.25;;;;;;;8.68;59.66;97919.66;4455498;32;20080;-90
2021/01/24 08:08:12;;;;;;;16.25;10.73;;;;;;;8.68;59.66;97918.81;4455029;32;20159;-90
2021/01/24 08:10:38;;;;;;;20.62;11.90;;;;;;;8.84;59.67;97930.91;4455101;32;20108;-90
2021/01/24 08:13:03;;;;;;;18.23;11.27;;;;;;;8.92;59.68;97925.28;4454710;32;20603;-90
2021/01/24 08:15:28;;;;;;;19.73;12.07;;;;;;;8.88;59.67;97927.22;4454680;32;20151;-89
2021/01/24 08:17:54;;;;;;;18.52;12.23;;;;;;;8.80;59.66;97938.94;4467790;32;20139;-90
2021/01/24 08:20:20;;;;;;;23.20;12.07;;;;;;;8.90;59.67;97943.53;4455075;32;20105;-90
2021/01/24 08:22:46;;;;;;;23.73;14.95;;;;;;;8.49;59.65;97950.06;4454765;32;20111;-90
2021/01/24 08:25:11;;;;;;;31.10;16.87;;;;;;;8.19;59.63;97955.91;4441504;32;20136;-90
2021/01/24 08:27:37;;;;;;;33.97;18.00;;;;;;;7.95;59.62;97962.31;4467757;32;20418;-90
2021/01/24 08:30:03;;;;;;;27.62;15.23;;;;;;;7.92;59.62;97965.91;4454930;32;20132;-89
2021/01/24 08:32:29;;;;;;;26.58;14.80;;;;;;;8.01;59.62;97975.78;4454907;32;20084;-89
2021/01/24 08:34:54;;;;;;;27.37;15.50;;;;;;;7.84;59.62;97974.97;4454904;32;20092;-90
2021/01/24 08:37:20;;;;;;;26.25;15.18;;;;;;;7.63;59.61;97990.63;4454306;32;20113;-89
2021/01/24 08:39:46;;;;;;;26.87;15.07;;;;;;;7.73;59.61;97991.03;4454925;32;20130;-91
2021/01/24 08:42:11;;;;;;;25.08;14.18;;;;;;;7.86;59.62;97991.28;4454635;32;20160;-89
2021/01/24 08:44:36;;;;;;;24.37;14.63;;;;;;;7.91;59.61;97995.31;4467381;32;20114;-91
2021/01/24 08:47:05;;;;;;;24.60;13.88;;;;;;;7.63;59.61;98001.00;4468552;32;20484;-91
2021/01/24 08:49:31;;;;;;;21.35;11.15;;;;;;;7.73;59.61;98003.97;4468267;32;20482;-90
2021/01/24 08:51:57;;;;;;;25.35;13.73;;;;;;;7.62;59.61;98001.06;4454973;32;20149;-91
2021/01/24 08:54:30;;;;;;;23.45;13.27;;;;;;;7.54;59.59;97998.81;4455153;32;20092;-90
2021/01/24 08:57:20;;;;;;;16.87;10.23;;;;;;;7.63;59.61;98000.16;4454932;32;20109;-91
2021/01/24 08:59:49;;;;;;;14.85;8.85;;;;;;;7.87;59.62;98008.50;4455684;32;20127;-89
2021/01/24 09:02:14;;;;;;;16.80;9.43;;;;;;;7.83;59.61;98001.78;4468078;32;20093;-91
2021/01/24 09:04:46;;;;;;;14.30;8.32;;;;;;;7.76;59.61;98005.56;4442632;32;20425;-91
2021/01/24 09:07:15;;;;;;;13.75;7.97;;;;;;;7.69;59.60;98010.22;4442363;32;20100;-89
2021/01/24 09:09:45;;;;;;;14.13;8.88;;;;;;;7.76;59.60;98021.09;4454549;32;20100;-89
2021/01/24 09:12:21;;;;;;;12.77;7.93;;;;;;;7.69;59.61;98026.59;4440716;32;20111;-89
2021/01/24 09:14:47;;;;;;;14.00;8.45;;;;;;;7.74;59.61;98028.13;4442131;32;20088;-89
2021/01/24 09:17:17;;;;;;;16.60;9.60;;;;;;;7.76;59.61;98021.09;4454268;32;20097;-89
2021/01/24 09:19:43;;;;;;;13.90;8.93;;;;;;;7.61;59.61;98005.41;4441421;32;20156;-88
2021/01/24 09:22:10;;;;;;;15.93;9.27;;;;;;;7.38;59.58;98016.84;4454371;32;20148;-89
2021/01/24 09:24:36;;;;;;;17.00;9.77;;;;;;;7.60;59.60;98005.50;4467488;32;20119;-89
2021/01/24 09:27:02;;;;;;;16.30;10.00;;;;;;;7.52;59.59;98003.25;4454576;32;20109;-87
2021/01/24 09:29:27;;;;;;;16.33;9.95;;;;;;;7.62;59.59;98009.69;4468675;32;20141;-88
2021/01/24 09:31:53;;;;;;;16.50;9.95;;;;;;;7.84;59.60;98016.41;4453945;32;20123;-89
2021/01/24 09:34:18;;;;;;;18.62;10.02;;;;;;;7.91;59.61;98017.78;4453167;32;32669;-88
2021/01/24 09:36:44;;;;;;;16.80;10.07;;;;;;;8.12;59.62;98028.84;4453668;32;20229;-89
2021/01/24 09:39:10;;;;;;;16.65;9.70;;;;;;;8.27;59.64;98026.31;4453951;32;20140;-89
2021/01/24 09:41:36;;;;;;;19.58;10.65;;;;;;;8.16;59.63;98018.25;4454169;32;20541;-89
2021/01/24 09:44:01;;;;;;;20.08;11.82;;;;;;;8.26;59.64;98023.81;4453763;32;20129;-89
2021/01/24 09:46:27;;;;;;;14.27;9.18;;;;;;;8.47;59.65;98021.91;4453679;32;20514;-89
2021/01/24 09:48:53;;;;;;;16.27;10.77;;;;;;;8.50;59.64;98026.94;4453586;32;20092;-89
2021/01/24 09:51:18;;;;;;;14.38;9.45;;;;;;;8.24;59.64;98029.06;4453489;32;20429;-89
2021/01/24 09:53:47;;;;;;;14.95;8.80;;;;;;;8.28;59.64;98024.56;4468141;32;20140;-89
2021/01/24 09:56:13;;;;;;;30.67;14.33;;;;;;;7.76;59.62;98027.13;4466712;32;20127;-89
2021/01/24 09:58:39;;;;;;;36.00;18.00;;;;;;;7.85;59.61;98031.03;4453697;32;20487;-89
2021/01/24 10:01:04;;;;;;;13.98;8.82;;;;;;;8.27;59.64;98030.66;4453534;32;20080;-88
2021/01/24 10:03:30;;;;;;;15.80;9.23;;;;;;;8.48;59.64;98034.81;4439725;32;25022;-89
2021/01/24 10:05:55;;;;;;;13.68;8.63;;;;;;;8.63;59.65;98033.19;4465468;32;27363;-89
2021/01/24 10:08:21;;;;;;;15.75;10.15;;;;;;;8.42;59.64;98031.69;4440424;32;20113;-89
2021/01/24 10:10:46;;;;;;;13.25;8.20;;;;;;;8.51;59.66;98036.41;4465966;32;20526;-89
2021/01/24 10:13:13;;;;;;;13.25;8.93;;;;;;;8.61;59.66;98041.06;4440076;32;20123;-89
2021/01/24 10:15:39;;;;;;;13.65;8.43;;;;;;;8.73;59.66;98042.16;4453129;32;20100;-89
2021/01/24 10:18:05;;;;;;;13.80;8.20;;;;;;;8.77;59.67;98048.91;4453342;32;20139;-90
2021/01/24 10:20:30;;;;;;;13.65;8.27;;;;;;;8.86;59.67;98048.41;4440228;32;20516;-89
2021/01/24 10:22:55;;;;;;;13.70;9.02;;;;;;;9.04;59.67;98051.81;4453351;32;20129;-90
2021/01/24 10:25:21;;;;;;;12.93;8.80;;;;;;;9.15;59.69;98044.25;4442013;32;23572;-89
2021/01/24 10:27:46;;;;;;;14.80;9.73;;;;;;;9.17;59.68;98045.03;4442456;32;20156;-89
2021/01/24 10:30:13;;;;;;;15.60;9.85;;;;;;;8.95;59.67;98033.25;4442023;32;29893;-89
2021/01/24 10:32:40;;;;;;;15.32;9.90;;;;;;;8.83;59.67;98033.00;4442537;32;20115;-89
2021/01/24 10:35:06;;;;;;;14.32;9.48;;;;;;;8.80;59.66;98034.94;4442417;32;20097;-89
2021/01/24 10:37:32;;;;;;;16.05;8.73;;;;;;;8.92;59.67;98032.50;4455416;32;20152;-89
2021/01/24 10:39:57;;;;;;;16.10;9.50;;;;;;;9.04;59.68;98032.78;4441412;32;28236;-89
2021/01/24 10:42:22;;;;;;;12.37;8.20;;;;;;;9.20;59.69;98028.44;4441756;32;28631;-90
2021/01/24 10:44:48;;;;;;;13.45;8.48;;;;;;;9.29;59.70;98030.56;4454921;32;20174;-89
2021/01/24 10:47:13;;;;;;;12.57;7.57;;;;;;;9.33;59.69;98031.22;4454794;32;20160;-89
2021/01/24 10:49:39;;;;;;;11.63;8.15;;;;;;;9.41;59.69;98035.06;4441802;32;23182;-90
2021/01/24 10:52:07;;;;;;;8.40;5.50;;;;;;;9.31;59.69;98039.09;4455347;32;22170;-88
2021/01/24 10:54:34;;;;;;;10.30;5.47;;;;;;;9.27;59.69;98050.56;4442765;32;20536;-90
2021/01/24 10:56:59;;;;;;;12.15;7.62;;;;;;;9.33;59.69;98041.59;4455650;32;20109;-89
2021/01/24 10:59:25;;;;;;;8.82;6.15;;;;;;;9.68;59.71;98042.25;4442745;32;20479;-89
2021/01/24 11:01:50;;;;;;;7.20;5.00;;;;;;;9.63;59.71;98039.94;4442519;32;20433;-88
2021/01/24 11:04:16;;;;;;;9.13;5.78;;;;;;;9.50;59.71;98036.34;4455382;32;20120;-90
2021/01/24 11:06:41;;;;;;;6.95;5.05;;;;;;;9.36;59.70;98042.28;4468666;32;20157;-89
2021/01/24 11:09:06;;;;;;;6.07;4.70;;;;;;;9.52;59.70;98043.13;4442613;32;20172;-89
2021/01/24 11:11:32;;;;;;;6.62;4.62;;;;;;;9.33;59.69;98046.81;4455406;32;20143;-90
2021/01/24 11:13:57;;;;;;;7.37;5.10;;;;;;;9.35;59.70;98044.97;4441978;32;24489;-91
2021/01/24 11:16:22;;;;;;;5.93;4.32;;;;;;;9.52;59.71;98040.53;4441521;32;33061;-90
2021/01/24 11:18:48;;;;;;;4.15;3.03;;;;;;;9.36;59.70;98049.22;4441958;32;21153;-90
2021/01/24 11:21:13;;;;;;;5.47;3.58;;;;;;;9.34;59.70;98043.28;4441900;32;24883;-90
2021/01/24 11:23:39;;;;;;;5.45;4.07;;;;;;;9.13;59.68;98051.31;4455356;32;20160;-89
2021/01/24 11:26:04;;;;;;;6.62;4.00;;;;;;;9.20;59.69;98055.22;4455267;32;20117;-90
2021/01/24 11:28:29;;;;;;;5.45;3.75;;;;;;;9.20;59.69;98059.59;4468363;32;20532;-90
2021/01/24 11:30:55;;;;;;;6.97;4.22;;;;;;;9.32;59.69;98056.34;4455126;32;20128;-90